createdAt,value
2023-02-06T00:00:47.345Z,100338.17
2023-02-06T00:04:10.808Z,100341.73
2023-02-06T00:07:14.125Z,100345.55
2023-02-06T00:10:17.654Z,100346.73
2023-02-06T00:13:21.336Z,100343.02
2023-02-06T00:16:34.011Z,100349.86
2023-02-06T00:19:38.308Z,100346.52
2023-02-06T00:22:41.574Z,100343.49
2023-02-06T00:25:45.062Z,100345.60
2023-02-06T00:28:48.695Z,100342.95
2023-02-06T00:31:52.028Z,100346.13
2023-02-06T00:34:55.465Z,100344.84
2023-02-06T00:38:00.206Z,100339.12
2023-02-06T00:41:04.198Z,100339.66
2023-02-06T00:44:07.869Z,100337.40
2023-02-06T00:47:11.214Z,100333.10
2023-02-06T00:50:14.529Z,100325.23
2023-02-06T00:53:20.144Z,100323.27
2023-02-06T00:56:23.491Z,100321.02
2023-02-06T00:59:26.857Z,100313.22
2023-02-06T01:02:30.226Z,100315.45
2023-02-06T01:05:35.545Z,100308.06
2023-02-06T01:08:39.138Z,100305.58
2023-02-06T01:11:42.412Z,100310.33
2023-02-06T01:14:49.625Z,100311.95
2023-02-06T01:17:52.913Z,100306.35
2023-02-06T01:20:56.204Z,100305.04
2023-02-06T01:23:59.668Z,100302.69
2023-02-06T01:27:05.806Z,100306.84
2023-02-06T01:30:10.305Z,100308.77
2023-02-06T01:33:13.957Z,100311.15
2023-02-06T01:36:19.443Z,100305.61
2023-02-06T01:39:22.677Z,100304.90
2023-02-06T01:42:26.284Z,100293.80
2023-02-06T01:45:42.052Z,100295.30
2023-02-06T01:48:51.191Z,100281.61
2023-02-06T01:52:01.459Z,100285.96
2023-02-06T01:55:05.398Z,100289.68
2023-02-06T01:58:11.691Z,100288.11
2023-02-06T02:01:16.111Z,100285.25
2023-02-06T02:04:23.468Z,100278.50
2023-02-06T02:07:32.436Z,100269.56
2023-02-06T02:10:35.694Z,100263.95
2023-02-06T02:13:39.854Z,100262.16
2023-02-06T02:17:04.566Z,100266.19
2023-02-06T02:20:54.894Z,100265.06
2023-02-06T02:24:39.311Z,100248.79
2023-02-06T02:27:53.239Z,100243.44
2023-02-06T02:31:20.162Z,100233.72
2023-02-06T02:34:48.010Z,100234.35
2023-02-06T02:37:56.217Z,100227.66
2023-02-06T02:41:11.643Z,100230.38
2023-02-06T02:44:34.559Z,100239.20
2023-02-06T02:47:52.886Z,100238.23
2023-02-06T02:51:00.259Z,100234.34
2023-02-06T02:54:04.012Z,100237.66
2023-02-06T02:57:18.052Z,100238.20
2023-02-06T03:00:25.137Z,100249.00
2023-02-06T03:03:32.569Z,100249.46
2023-02-06T03:06:54.211Z,100247.58
2023-02-06T03:10:15.093Z,100247.18
2023-02-06T03:13:32.552Z,100238.60
2023-02-06T03:16:45.996Z,100241.61
2023-02-06T03:19:55.514Z,100239.56
2023-02-06T03:23:01.175Z,100240.80
2023-02-06T03:26:10.282Z,100241.05
2023-02-06T03:29:16.910Z,100239.91
2023-02-06T03:32:25.215Z,100247.61
2023-02-06T03:35:36.170Z,100252.61
2023-02-06T03:38:40.136Z,100253.29
2023-02-06T03:41:46.228Z,100252.27
2023-02-06T03:44:57.129Z,100251.88
2023-02-06T03:48:10.977Z,100255.55
2023-02-06T03:51:29.300Z,100256.82
2023-02-06T03:54:35.980Z,100251.86
2023-02-06T03:57:41.901Z,100249.79
2023-02-06T04:00:46.794Z,100253.70
2023-02-06T04:03:50.125Z,100252.55
2023-02-06T04:06:53.460Z,100252.55
2023-02-06T04:09:56.761Z,100252.40
2023-02-06T04:13:02.848Z,100251.00
2023-02-06T04:16:06.222Z,100253.34
2023-02-06T04:19:09.589Z,100247.08
2023-02-06T04:22:15.361Z,100241.94
2023-02-06T04:25:18.938Z,100243.70
2023-02-06T04:28:22.369Z,100244.86
2023-02-06T04:31:25.922Z,100245.80
2023-02-06T04:34:29.912Z,100246.20
2023-02-06T04:37:33.324Z,100247.31
2023-02-06T04:40:37.507Z,100246.08
2023-02-06T04:43:40.751Z,100254.52
2023-02-06T04:46:44.819Z,100245.77
2023-02-06T04:49:48.241Z,100245.98
2023-02-06T04:52:51.777Z,100244.88
2023-02-06T04:56:02.552Z,100240.34
2023-02-06T04:59:06.304Z,100241.46
2023-02-06T05:02:09.658Z,100239.73
2023-02-06T05:05:13.027Z,100234.23
2023-02-06T05:08:16.352Z,100235.20
2023-02-06T05:11:19.808Z,100236.08
2023-02-06T05:14:23.377Z,100237.88
2023-02-06T05:17:26.786Z,100239.35
2023-02-06T05:20:30.447Z,100248.04
2023-02-06T05:23:33.811Z,100249.77
2023-02-06T05:26:37.093Z,100247.50
2023-02-06T05:29:40.448Z,100246.16
2023-02-06T05:32:43.987Z,100247.44
2023-02-06T05:35:47.537Z,100250.45
2023-02-06T05:38:51.037Z,100251.15
2023-02-06T05:41:54.397Z,100254.58
2023-02-06T05:44:58.009Z,100250.54
2023-02-06T05:48:01.443Z,100254.31
2023-02-06T05:51:04.925Z,100257.60
2023-02-06T05:54:08.712Z,100258.20
2023-02-06T05:57:12.263Z,100254.84
2023-02-06T06:00:16.894Z,100256.11
2023-02-06T06:03:20.447Z,100254.46
2023-02-06T06:06:23.858Z,100263.14
2023-02-06T06:09:27.179Z,100264.02
2023-02-06T06:12:30.665Z,100266.30
2023-02-06T06:15:34.745Z,100269.36
2023-02-06T06:18:38.310Z,100262.01
2023-02-06T06:21:41.742Z,100252.99
2023-02-06T06:24:45.123Z,100251.33
2023-02-06T06:27:48.450Z,100249.89
2023-02-06T06:30:52.115Z,100256.18
2023-02-06T06:33:55.394Z,100253.94
2023-02-06T06:36:58.726Z,100254.06
2023-02-06T06:40:02.112Z,100254.81
2023-02-06T06:43:05.473Z,100249.98
2023-02-06T06:46:08.984Z,100249.56
2023-02-06T06:49:12.209Z,100252.09
2023-02-06T06:52:24.483Z,100254.09
2023-02-06T06:55:28.374Z,100265.03
2023-02-06T06:58:31.908Z,100267.34
2023-02-06T07:08:59.778Z,100277.80
2023-02-06T07:12:03.192Z,100278.93
2023-02-06T07:15:07.491Z,100274.39
2023-02-06T07:18:11.802Z,100272.63
2023-02-06T07:21:16.040Z,100268.79
2023-02-06T07:24:19.651Z,100270.49
2023-02-06T07:27:22.919Z,100262.70
2023-02-06T07:30:26.353Z,100264.16
2023-02-06T07:33:30.049Z,100268.21
2023-02-06T07:36:33.411Z,100269.96
2023-02-06T07:39:36.896Z,100265.64
2023-02-06T07:42:40.527Z,100268.95
2023-02-06T07:46:05.316Z,100268.10
2023-02-06T07:49:08.624Z,100273.45
2023-02-06T07:52:11.823Z,100272.13
2023-02-06T07:55:15.148Z,100271.51
2023-02-06T07:58:20.612Z,100267.36
2023-02-06T08:01:24.147Z,100264.54
2023-02-06T08:04:29.505Z,100267.34
2023-02-06T08:07:33.332Z,100270.14
2023-02-06T08:10:39.864Z,100271.59
2023-02-06T08:13:44.013Z,100270.27
2023-02-06T08:16:50.795Z,100272.27
2023-02-06T08:19:54.579Z,100268.75
2023-02-06T08:22:58.059Z,100275.89
2023-02-06T08:26:03.550Z,100275.53
2023-02-06T08:29:08.113Z,100275.86
2023-02-06T08:32:12.363Z,100273.95
2023-02-06T08:35:15.799Z,100277.00
2023-02-06T08:38:19.063Z,100277.30
2023-02-06T08:41:25.755Z,100274.52
2023-02-06T08:44:29.702Z,100276.00
2023-02-06T08:47:33.055Z,100271.65
2023-02-06T08:50:36.629Z,100275.40
2023-02-06T08:53:40.232Z,100277.10
2023-02-06T08:56:43.593Z,100277.14
2023-02-06T08:59:47.050Z,100278.09
2023-02-06T09:02:53.404Z,100276.89
2023-02-06T09:06:09.432Z,100278.76
2023-02-06T09:09:13.415Z,100278.42
2023-02-06T09:12:16.778Z,100276.83
2023-02-06T09:15:20.173Z,100279.21
2023-02-06T09:18:23.499Z,100285.27
2023-02-06T09:21:28.898Z,100284.52
2023-02-06T09:24:32.350Z,100291.11
2023-02-06T09:27:36.449Z,100290.84
2023-02-06T09:30:39.796Z,100295.25
2023-02-06T09:33:43.063Z,100303.31
2023-02-06T09:36:46.478Z,100305.91
2023-02-06T09:39:49.668Z,100307.61
2023-02-06T09:42:54.440Z,100310.20
2023-02-06T09:46:06.020Z,100306.65
2023-02-06T09:49:21.176Z,100305.15
2023-02-06T09:52:26.995Z,100303.52
2023-02-06T09:55:41.384Z,100301.41
2023-02-06T09:58:52.723Z,100300.75
2023-02-06T10:01:59.173Z,100298.14
2023-02-06T10:05:19.649Z,100302.65
2023-02-06T10:08:38.301Z,100294.95
2023-02-06T10:11:48.383Z,100296.39
2023-02-06T10:15:00.478Z,100293.05
2023-02-06T10:18:16.994Z,100296.33
2023-02-06T10:21:32.530Z,100293.85
2023-02-06T10:25:02.305Z,100291.59
2023-02-06T10:28:23.221Z,100289.38
2023-02-06T10:31:26.868Z,100285.56
2023-02-06T10:34:51.069Z,100279.64
2023-02-06T10:38:32.914Z,100278.15
2023-02-06T10:41:45.629Z,100280.10
2023-02-06T10:45:17.440Z,100270.79
2023-02-06T10:48:39.154Z,100268.06
2023-02-06T10:51:49.372Z,100258.79
2023-02-06T10:54:57.333Z,100256.67
2023-02-06T10:58:15.673Z,100256.85
2023-02-06T11:01:26.446Z,100252.52
2023-02-06T11:04:42.478Z,100250.29
2023-02-06T11:07:50.320Z,100242.99
2023-02-06T11:10:56.081Z,100239.49
2023-02-06T11:14:06.067Z,100237.05
2023-02-06T11:17:11.581Z,100238.95
2023-02-06T11:20:28.380Z,100241.98
2023-02-06T11:23:34.720Z,100247.34
2023-02-06T11:26:51.180Z,100238.88
2023-02-06T11:29:55.181Z,100243.42
2023-02-06T11:33:04.964Z,100239.84
2023-02-06T11:36:27.213Z,100241.98
2023-02-06T11:39:30.699Z,100238.59
2023-02-06T11:42:36.042Z,100235.81
2023-02-06T11:45:41.046Z,100233.86
2023-02-06T11:48:47.537Z,100238.35
2023-02-06T11:52:03.893Z,100231.64
2023-02-06T11:55:23.461Z,100224.45
2023-02-06T11:58:29.063Z,100226.45
2023-02-06T12:01:44.102Z,100224.40
2023-02-06T12:04:48.342Z,100228.99
2023-02-06T12:08:16.240Z,100227.70
2023-02-06T12:11:23.633Z,100232.54
2023-02-06T12:14:36.130Z,100238.90
2023-02-06T12:17:40.932Z,100239.15
2023-02-06T12:21:16.498Z,100243.61
2023-02-06T12:24:43.463Z,100242.73
2023-02-06T12:27:46.922Z,100248.36
2023-02-06T12:31:03.621Z,100247.80
2023-02-06T12:34:25.311Z,100240.38
2023-02-06T12:37:41.244Z,100243.50
2023-02-06T12:40:47.352Z,100243.46
2023-02-06T12:43:59.954Z,100240.19
2023-02-06T12:47:21.777Z,100237.89
2023-02-06T12:50:39.541Z,100238.63
2023-02-06T12:54:18.734Z,100238.80
2023-02-06T12:57:28.399Z,100235.19
2023-02-06T13:01:04.753Z,100236.21
2023-02-06T13:04:23.895Z,100242.40
2023-02-06T13:07:28.325Z,100242.04
2023-02-06T13:10:34.319Z,100240.08
2023-02-06T13:13:43.006Z,100242.54
2023-02-06T13:16:51.190Z,100245.03
2023-02-06T13:20:13.444Z,100253.48
2023-02-06T13:23:23.340Z,100256.61
2023-02-06T13:26:48.005Z,100259.67
2023-02-06T13:29:54.075Z,100257.55
2023-02-06T13:33:20.164Z,100256.90
2023-02-06T13:36:41.730Z,100252.29
2023-02-06T13:39:48.605Z,100251.73
2023-02-06T13:43:10.548Z,100260.92
2023-02-06T13:46:24.714Z,100253.98
2023-02-06T13:50:15.745Z,100252.88
2023-02-06T13:53:32.434Z,100253.66
2023-02-06T13:56:59.896Z,100252.82
2023-02-06T14:00:20.479Z,100258.09
2023-02-06T14:03:31.595Z,100258.10
2023-02-06T14:06:56.904Z,100257.41
2023-02-06T14:10:15.398Z,100258.03
2023-02-06T14:14:02.634Z,100259.45
2023-02-06T14:17:33.342Z,100262.21
2023-02-06T14:21:15.241Z,100267.09
2023-02-06T14:24:26.163Z,100268.88
2023-02-06T14:27:32.410Z,100266.78
2023-02-06T14:30:55.947Z,100267.17
2023-02-06T14:34:10.806Z,100270.15
2023-02-06T14:37:23.320Z,100271.66
2023-02-06T14:40:30.116Z,100274.38
2023-02-06T14:43:38.094Z,100276.27
2023-02-06T14:47:37.609Z,100279.84
2023-02-06T14:51:34.206Z,100283.41
2023-02-06T14:54:38.777Z,100281.61
2023-02-06T14:57:45.559Z,100284.82
2023-02-06T15:00:48.874Z,100287.27
2023-02-06T15:03:52.935Z,100287.48
2023-02-06T15:07:00.106Z,100284.98
2023-02-06T15:10:06.905Z,100286.94
2023-02-06T15:13:36.401Z,100286.95
2023-02-06T15:16:50.598Z,100286.25
2023-02-06T15:19:54.066Z,100292.02
2023-02-06T15:23:16.594Z,100294.56
2023-02-06T15:26:50.537Z,100295.27
2023-02-06T15:29:54.570Z,100294.83
2023-02-06T15:32:57.853Z,100293.15
2023-02-06T15:36:04.446Z,100294.29
2023-02-06T15:39:09.740Z,100300.66
2023-02-06T15:42:13.164Z,100301.79
2023-02-06T15:45:28.831Z,100304.43
2023-02-06T15:48:47.316Z,100309.94
2023-02-06T15:51:54.971Z,100305.34
2023-02-06T15:54:59.307Z,100305.34
2023-02-06T15:58:05.244Z,100305.38
2023-02-06T16:01:19.328Z,100306.23
2023-02-06T16:04:32.524Z,100303.03
2023-02-06T16:07:36.640Z,100300.42
2023-02-06T16:10:41.031Z,100298.96
2023-02-06T16:13:46.069Z,100297.21
2023-02-06T16:17:01.564Z,100301.52
2023-02-06T16:20:24.582Z,100307.31
2023-02-06T16:23:29.799Z,100321.87
2023-02-06T16:26:49.749Z,100324.85
2023-02-06T16:29:56.291Z,100331.93
2023-02-06T16:33:08.967Z,100336.31
2023-02-06T16:36:14.214Z,100335.95
2023-02-06T16:39:17.405Z,100341.56
2023-02-06T16:42:23.221Z,100343.83
2023-02-06T16:45:28.065Z,100348.91
2023-02-06T16:48:31.259Z,100347.86
2023-02-06T16:51:35.145Z,100351.72
2023-02-06T16:54:38.630Z,100352.01
2023-02-06T16:57:45.060Z,100355.95
2023-02-06T17:00:48.985Z,100367.83
2023-02-06T17:03:59.182Z,100375.97
2023-02-06T17:07:04.873Z,100375.66
2023-02-06T17:13:30.313Z,100373.66
2023-02-06T17:16:34.329Z,100373.95
2023-02-06T17:19:41.728Z,100377.79
2023-02-06T17:22:45.036Z,100374.63
2023-02-06T17:25:51.125Z,100377.21
2023-02-06T17:28:54.823Z,100372.74
2023-02-06T17:31:59.903Z,100374.08
2023-02-06T17:35:03.280Z,100376.77
2023-02-06T17:38:08.616Z,100375.90
2023-02-06T17:41:11.951Z,100382.80
2023-02-06T17:44:18.011Z,100377.44
2023-02-06T17:47:21.317Z,100372.94
2023-02-06T17:50:26.923Z,100370.08
2023-02-06T17:53:30.179Z,100371.77
2023-02-06T17:56:34.645Z,100371.35
2023-02-06T17:59:37.907Z,100370.63
2023-02-06T18:02:41.218Z,100376.03
2023-02-06T18:05:45.046Z,100387.80
2023-02-06T18:08:48.348Z,100392.91
2023-02-06T18:11:51.471Z,100391.38
2023-02-06T18:14:54.939Z,100396.56
2023-02-06T18:17:59.675Z,100399.50
2023-02-06T18:21:02.809Z,100394.64
2023-02-06T18:24:06.443Z,100399.57
2023-02-06T18:27:10.741Z,100398.65
2023-02-06T18:30:15.481Z,100392.30
2023-02-06T18:33:18.676Z,100385.42
2023-02-06T18:36:23.228Z,100396.55
2023-02-06T18:39:26.538Z,100409.11
2023-02-06T18:42:48.421Z,100414.32
2023-02-06T18:45:51.645Z,100410.69
2023-02-06T18:48:55.499Z,100407.13
2023-02-06T18:51:58.641Z,100396.14
2023-02-06T18:55:02.023Z,100388.31
2023-02-06T18:58:06.272Z,100388.69
2023-02-06T19:01:14.518Z,100386.27
2023-02-06T19:04:19.368Z,100389.46
2023-02-06T19:07:22.743Z,100383.96
2023-02-06T19:10:26.349Z,100385.55
2023-02-06T19:13:29.597Z,100386.73
2023-02-06T19:16:34.265Z,100395.55
2023-02-06T19:19:37.480Z,100399.23
2023-02-06T19:22:40.669Z,100398.20
2023-02-06T19:25:43.824Z,100401.89
2023-02-06T19:28:47.248Z,100399.90
2023-02-06T19:31:50.709Z,100399.30
2023-02-06T19:34:53.829Z,100394.36
2023-02-06T19:37:56.950Z,100399.21
2023-02-06T19:41:15.006Z,100397.83
2023-02-06T19:44:19.115Z,100406.75
2023-02-06T19:47:22.980Z,100412.27
2023-02-06T19:50:26.262Z,100404.45
2023-02-06T19:53:32.913Z,100394.10
2023-02-06T19:56:41.734Z,100400.77
2023-02-06T19:59:45.229Z,100401.23
2023-02-06T20:02:48.597Z,100403.08
2023-02-06T20:05:51.873Z,100397.87
2023-02-06T20:08:57.126Z,100404.44
2023-02-06T20:12:00.570Z,100406.90
2023-02-06T20:15:04.039Z,100413.77
2023-02-06T20:18:07.286Z,100418.66
2023-02-06T20:21:27.933Z,100424.15
2023-02-06T20:24:32.497Z,100430.15
2023-02-06T20:27:35.765Z,100448.56
2023-02-06T20:30:39.429Z,100458.98
2023-02-06T20:33:43.223Z,100464.81
2023-02-06T20:36:47.495Z,100468.55
2023-02-06T20:39:50.950Z,100469.02
2023-02-06T20:42:57.141Z,100475.59
2023-02-06T20:46:00.487Z,100478.09
2023-02-06T20:49:09.402Z,100477.66
2023-02-06T20:52:12.907Z,100474.98
2023-02-06T20:55:16.208Z,100473.14
2023-02-06T20:58:20.475Z,100474.10
2023-02-06T21:01:27.144Z,100476.73
2023-02-06T21:04:33.950Z,100484.20
2023-02-06T21:11:09.594Z,100482.96
2023-02-06T21:14:13.763Z,100477.69
2023-02-06T21:17:17.042Z,100480.42
2023-02-06T21:20:20.403Z,100493.88
2023-02-06T21:23:24.839Z,100501.46
2023-02-06T21:26:28.874Z,100502.41
2023-02-06T21:29:32.180Z,100500.89
2023-02-06T21:32:35.477Z,100500.33
2023-02-06T21:35:40.490Z,100499.83
2023-02-06T21:38:44.313Z,100510.08
2023-02-06T21:41:51.806Z,100517.70
2023-02-06T21:44:55.108Z,100515.24
2023-02-06T21:47:58.295Z,100512.61
2023-02-06T21:51:21.071Z,100519.52
2023-02-06T21:54:24.870Z,100528.71
2023-02-06T21:57:28.035Z,100534.65
2023-02-06T22:00:31.202Z,100542.06
2023-02-06T22:03:34.449Z,100550.23
2023-02-06T22:06:38.417Z,100560.57
2023-02-06T22:09:41.691Z,100555.86
2023-02-06T22:12:48.962Z,100552.41
2023-02-06T22:15:52.265Z,100551.15
2023-02-06T22:18:56.456Z,100557.04
2023-02-06T22:21:59.548Z,100565.63
2023-02-06T22:25:02.850Z,100565.82
2023-02-06T22:28:06.030Z,100568.55
2023-02-06T22:31:13.027Z,100561.61
2023-02-06T22:34:18.842Z,100545.81
2023-02-06T22:37:22.229Z,100531.16
2023-02-06T22:40:25.328Z,100526.40
2023-02-06T22:43:29.827Z,100536.45
2023-02-06T22:46:37.545Z,100539.73
2023-02-06T22:49:40.890Z,100531.20
2023-02-06T22:53:02.627Z,100527.30
2023-02-06T22:56:29.644Z,100524.95
2023-02-06T22:59:32.792Z,100512.46
2023-02-06T23:02:37.667Z,100510.92
2023-02-06T23:05:41.097Z,100503.54
2023-02-06T23:08:45.081Z,100500.76
2023-02-06T23:11:49.024Z,100499.52
2023-02-06T23:14:52.215Z,100500.27
2023-02-06T23:17:55.571Z,100498.46
2023-02-06T23:21:02.376Z,100493.87
2023-02-06T23:24:07.249Z,100512.85
2023-02-06T23:27:10.424Z,100506.98
2023-02-06T23:30:13.843Z,100506.01
2023-02-06T23:33:17.257Z,100508.50
2023-02-06T23:36:22.109Z,100505.64
2023-02-06T23:39:25.319Z,100514.29
2023-02-06T23:42:29.353Z,100516.70
2023-02-06T23:45:33.539Z,100506.59
2023-02-06T23:48:39.114Z,100514.23
2023-02-06T23:51:42.291Z,100488.86
2023-02-06T23:54:45.554Z,100499.59
2023-02-06T23:57:48.819Z,100498.22
